Time,TemperatureF,DewpointF,PressureIn,WindDirection,WindDirectionDegrees,WindSpeedMPH,WindSpeedGustMPH,Humidity,HourlyPrecipIn,Conditions,Clouds,dailyrainin,SoftwareType,DateUTC
2013-03-18 00:07:00,49.4,46.0,30.17,NE,51,19.0,24.0,88,0.00,,,0.00,weatherlink.com 1.10,2013-03-18 04:07:00,
2013-03-18 00:22:00,49.6,47.0,30.15,ENE,59,21.0,26.0,89,0.00,,,0.00,weatherlink.com 1.10,2013-03-18 04:22:00,
2013-03-18 00:37:00,49.7,47.0,30.14,ENE,60,24.0,30.0,91,0.00,,,0.00,weatherlink.com 1.10,2013-03-18 04:37:00,
2013-03-18 00:52:00,49.6,47.0,30.14,NE,55,26.0,32.0,91,0.00,,,0.00,weatherlink.com 1.10,2013-03-18 04:52:00,
2013-03-18 01:07:00,49.5,47.0,30.13,NE,51,24.0,28.0,90,0.00,,,0.00,weatherlink.com 1.10,2013-03-18 05:07:00,
2013-03-18 01:22:00,49.5,47.0,30.13,NE,39,20.0,28.0,90,0.00,,,0.00,weatherlink.com 1.10,2013-03-18 05:22:00,
2013-03-18 01:37:00,49.4,47.0,30.14,NE,41,15.0,24.0,90,0.00,,,0.00,weatherlink.com 1.10,2013-03-18 05:37:00,
2013-03-18 01:52:00,49.5,47.0,30.14,ENE,59,17.0,22.0,90,0.00,,,0.00,weatherlink.com 1.10,2013-03-18 05:52:00,
2013-03-18 02:07:00,49.4,47.0,30.14,ENE,57,18.0,20.0,90,0.00,,,0.00,weatherlink.com 1.10,2013-03-18 06:07:00,
2013-03-18 02:22:00,49.4,47.0,30.13,NE,49,18.0,24.0,90,0.00,,,0.00,weatherlink.com 1.10,2013-03-18 06:22:00,
2013-03-18 02:37:00,49.5,47.0,30.13,NE,55,18.0,24.0,90,0.00,,,0.00,weatherlink.com 1.10,2013-03-18 06:37:00,
2013-03-18 02:52:00,49.5,47.0,30.14,NNE,15,8.0,20.0,91,0.00,,,0.00,weatherlink.com 1.10,2013-03-18 06:52:00,
2013-03-18 03:07:00,49.3,47.0,30.13,NNE,27,11.0,19.0,91,0.00,,,0.00,weatherlink.com 1.10,2013-03-18 07:07:00,
2013-03-18 03:22:00,49.3,47.0,30.13,NE,49,13.0,20.0,90,0.00,,,0.00,weatherlink.com 1.10,2013-03-18 07:22:00,
2013-03-18 03:36:00,49.3,47.0,30.12,NE,44,16.0,20.0,91,0.00,,,0.00,weatherlink.com 1.10,2013-03-18 07:36:00,
2013-03-18 04:07:00,49.1,46.0,30.11,NNE,28,14.0,20.0,90,0.00,,,0.00,weatherlink.com 1.10,2013-03-18 08:07:00,
2013-03-18 04:22:00,49.0,46.0,30.12,NE,37,12.0,16.0,90,0.00,,,0.00,weatherlink.com 1.10,2013-03-18 08:22:00,
2013-03-18 04:37:00,48.9,46.0,30.11,NE,43,13.0,18.0,91,0.00,,,0.00,weatherlink.com 1.10,2013-03-18 08:37:00,
2013-03-18 04:52:00,48.9,46.0,30.11,NE,44,13.0,22.0,91,0.00,,,0.00,weatherlink.com 1.10,2013-03-18 08:52:00,
2013-03-18 05:07:00,48.7,46.0,30.11,NE,45,9.0,17.0,91,0.00,,,0.00,weatherlink.com 1.10,2013-03-18 09:07:00,
2013-03-18 05:22:00,48.8,46.0,30.11,NE,37,14.0,19.0,91,0.00,,,0.00,weatherlink.com 1.10,2013-03-18 09:22:00,
2013-03-18 05:37:00,48.8,46.0,30.10,NE,49,14.0,19.0,91,0.00,,,0.00,weatherlink.com 1.10,2013-03-18 09:37:00,
2013-03-18 05:52:00,48.6,46.0,30.10,NNE,31,14.0,19.0,91,0.00,,,0.00,weatherlink.com 1.10,2013-03-18 09:52:00,
2013-03-18 06:07:00,48.7,46.0,30.10,NNE,32,17.0,17.0,91,0.00,,,0.00,weatherlink.com 1.10,2013-03-18 10:07:00,
2013-03-18 06:22:00,48.7,46.0,30.11,NNE,30,10.0,17.0,91,0.00,,,0.00,weatherlink.com 1.10,2013-03-18 10:22:00,
2013-03-18 06:37:00,49.0,47.0,30.11,NE,37,10.0,16.0,92,0.00,,,0.00,weatherlink.com 1.10,2013-03-18 10:37:00,
2013-03-18 06:52:00,48.7,46.0,30.12,NNE,15,11.0,16.0,91,0.00,,,0.00,weatherlink.com 1.10,2013-03-18 10:52:00,
2013-03-18 07:07:00,48.8,46.0,30.12,NE,37,12.0,20.0,91,0.00,,,0.00,weatherlink.com 1.10,2013-03-18 11:07:00,
2013-03-18 07:22:00,48.9,46.0,30.12,NE,41,8.0,18.0,91,0.00,,,0.00,weatherlink.com 1.10,2013-03-18 11:22:00,
2013-03-18 07:37:00,48.9,46.0,30.13,NNW,338,10.0,17.0,91,0.00,,,0.00,weatherlink.com 1.10,2013-03-18 11:37:00,
2013-03-18 07:52:00,49.1,47.0,30.13,NNE,13,10.0,14.0,91,0.00,,,0.00,weatherlink.com 1.10,2013-03-18 11:52:00,
2013-03-18 08:07:00,49.4,47.0,30.14,NNE,14,11.0,16.0,91,0.00,,,0.00,weatherlink.com 1.10,2013-03-18 12:07:00,
2013-03-18 08:22:00,49.6,47.0,30.13,NNW,341,15.0,17.0,91,0.00,,,0.00,weatherlink.com 1.10,2013-03-18 12:22:00,
2013-03-18 08:37:00,49.7,47.0,30.13,NNE,22,8.0,20.0,91,0.00,,,0.00,weatherlink.com 1.10,2013-03-18 12:37:00,
2013-03-18 08:52:00,49.8,47.0,30.13,NE,42,16.0,20.0,91,0.00,,,0.00,weatherlink.com 1.10,2013-03-18 12:52:00,
2013-03-18 09:07:00,50.1,48.0,30.14,NE,39,15.0,15.0,91,0.00,,,0.00,weatherlink.com 1.10,2013-03-18 13:07:00,
2013-03-18 09:22:00,50.4,48.0,30.14,North,8,7.0,18.0,90,0.00,,,0.00,weatherlink.com 1.10,2013-03-18 13:22:00,
2013-03-18 09:37:00,50.6,48.0,30.13,NNE,23,10.0,22.0,90,0.00,,,0.00,weatherlink.com 1.10,2013-03-18 13:37:00,
2013-03-18 09:53:00,50.8,48.0,30.14,NNE,24,14.0,20.0,89,0.00,,,0.00,weatherlink.com 1.10,2013-03-18 13:53:00,
2013-03-18 10:08:00,51.0,48.0,30.14,NNE,28,19.0,20.0,89,0.00,,,0.00,weatherlink.com 1.10,2013-03-18 14:08:00,
2013-03-18 10:23:00,51.2,48.0,30.15,NNE,32,9.0,20.0,89,0.00,,,0.00,weatherlink.com 1.10,2013-03-18 14:23:00,
2013-03-18 10:38:00,51.1,48.0,30.14,NNE,25,13.0,17.0,89,0.00,,,0.00,weatherlink.com 1.10,2013-03-18 14:38:00,
2013-03-18 10:53:00,51.8,49.0,30.13,North,6,6.0,19.0,89,0.00,,,0.00,weatherlink.com 1.10,2013-03-18 14:53:00,
2013-03-18 11:08:00,52.2,49.0,30.12,NE,34,7.0,21.0,89,0.00,,,0.00,weatherlink.com 1.10,2013-03-18 15:08:00,
2013-03-18 11:23:00,52.8,49.0,30.12,NE,40,14.0,19.0,88,0.00,,,0.00,weatherlink.com 1.10,2013-03-18 15:23:00,
2013-03-18 11:38:00,53.1,50.0,30.11,NE,51,12.0,18.0,88,0.00,,,0.00,weatherlink.com 1.10,2013-03-18 15:38:00,
2013-03-18 11:53:00,54.1,51.0,30.10,NNE,30,11.0,14.0,88,0.00,,,0.00,weatherlink.com 1.10,2013-03-18 15:53:00,
2013-03-18 12:08:00,54.6,51.0,30.10,NE,47,11.0,17.0,86,0.00,,,0.00,weatherlink.com 1.10,2013-03-18 16:08:00,
2013-03-18 12:23:00,54.7,51.0,30.09,NE,46,10.0,13.0,88,0.00,,,0.00,weatherlink.com 1.10,2013-03-18 16:23:00,
2013-03-18 12:53:00,55.7,52.0,30.08,ENE,61,7.0,11.0,87,0.00,,,0.00,weatherlink.com 1.10,2013-03-18 16:53:00,
2013-03-18 13:08:00,56.1,53.0,30.08,ENE,60,9.0,11.0,88,0.00,,,0.00,weatherlink.com 1.10,2013-03-18 17:08:00,
2013-03-18 13:23:00,56.7,53.0,30.08,ENE,63,6.0,11.0,87,0.00,,,0.00,weatherlink.com 1.10,2013-03-18 17:23:00,
2013-03-18 13:38:00,58.4,53.0,30.07,ENE,58,8.0,11.0,83,0.00,,,0.00,weatherlink.com 1.10,2013-03-18 17:38:00,
2013-03-18 13:53:00,57.8,53.0,30.06,North,11,3.0,12.0,84,0.00,,,0.00,weatherlink.com 1.10,2013-03-18 17:53:00,
2013-03-18 14:08:00,56.9,53.0,30.06,ENE,73,7.0,8.0,87,0.00,,,0.00,weatherlink.com 1.10,2013-03-18 18:08:00,
2013-03-18 14:23:00,56.6,54.0,30.05,ENE,73,6.0,-999.0,89,-99.99,,,0.00,weatherlink.com 1.10,2013-03-18 18:23:00,
2013-03-18 14:38:00,56.6,53.0,30.03,ENE,75,5.0,7.0,88,0.00,,,0.00,weatherlink.com 1.10,2013-03-18 18:38:00,
2013-03-18 14:53:00,57.2,54.0,30.02,ENE,72,7.0,9.0,88,0.00,,,0.00,weatherlink.com 1.10,2013-03-18 18:53:00,
2013-03-18 15:08:00,58.8,54.0,30.02,NE,37,8.0,15.0,85,0.00,,,0.00,weatherlink.com 1.10,2013-03-18 19:08:00,
2013-03-18 15:24:00,57.9,54.0,30.01,NE,46,7.0,10.0,86,0.00,,,0.00,weatherlink.com 1.10,2013-03-18 19:24:00,
2013-03-18 15:39:00,57.9,54.0,30.00,NE,49,7.0,8.0,86,0.00,,,0.00,weatherlink.com 1.10,2013-03-18 19:39:00,
2013-03-18 15:54:00,57.2,53.0,30.00,ENE,70,6.0,8.0,87,0.00,,,0.00,weatherlink.com 1.10,2013-03-18 19:54:00,
2013-03-18 16:09:00,56.8,54.0,30.00,East,88,6.0,7.0,89,0.00,,,0.00,weatherlink.com 1.10,2013-03-18 20:09:00,
2013-03-18 16:24:00,56.3,54.0,30.00,East,80,7.0,8.0,90,0.00,,,0.00,weatherlink.com 1.10,2013-03-18 20:24:00,
2013-03-18 16:39:00,56.2,53.0,29.99,ENE,59,5.0,7.0,90,0.00,,,0.00,weatherlink.com 1.10,2013-03-18 20:39:00,
2013-03-18 16:54:00,56.4,54.0,30.00,ENE,72,4.0,5.0,90,0.00,,,0.00,weatherlink.com 1.10,2013-03-18 20:54:00,
2013-03-18 17:09:00,56.6,54.0,29.99,East,79,2.0,4.0,89,0.00,,,0.00,weatherlink.com 1.10,2013-03-18 21:09:00,
2013-03-18 17:24:00,57.4,54.0,29.99,SE,130,2.0,3.0,89,0.00,,,0.00,weatherlink.com 1.10,2013-03-18 21:24:00,
2013-03-18 17:39:00,57.6,54.0,29.99,East,81,2.0,2.0,88,0.00,,,0.00,weatherlink.com 1.10,2013-03-18 21:39:00,
2013-03-18 17:54:00,57.4,55.0,29.98,SE,136,1.0,3.0,90,0.00,,,0.00,weatherlink.com 1.10,2013-03-18 21:54:00,
2013-03-18 18:09:00,57.2,54.0,29.98,ENE,72,2.0,3.0,90,0.00,,,0.00,weatherlink.com 1.10,2013-03-18 22:09:00,
2013-03-18 18:24:00,57.2,54.0,29.98,ESE,121,2.0,2.0,90,0.00,,,0.00,weatherlink.com 1.10,2013-03-18 22:24:00,
2013-03-18 18:39:00,57.2,55.0,29.98,SSE,147,1.0,2.0,91,0.00,,,0.00,weatherlink.com 1.10,2013-03-18 22:39:00,
2013-03-18 18:54:00,57.0,54.0,29.98,SSW,196,2.0,2.0,90,0.00,,,0.00,weatherlink.com 1.10,2013-03-18 22:54:00,
2013-03-18 19:09:00,56.4,54.0,29.98,SSE,149,0.0,2.0,91,0.00,,,0.00,weatherlink.com 1.10,2013-03-18 23:09:00,
2013-03-18 19:24:00,55.9,54.0,29.97,East,96,0.0,1.0,92,0.00,,,0.00,weatherlink.com 1.10,2013-03-18 23:24:00,
2013-03-18 19:39:00,55.5,54.0,29.97,SE,141,3.0,4.0,93,0.00,,,0.00,weatherlink.com 1.10,2013-03-18 23:39:00,
2013-03-18 19:54:00,55.1,54.0,29.97,SE,131,2.0,3.0,94,0.00,,,0.00,weatherlink.com 1.10,2013-03-18 23:54:00,
2013-03-18 20:09:00,55.0,53.0,29.97,ESE,109,1.0,2.0,94,0.00,,,0.00,weatherlink.com 1.10,2013-03-19 00:09:00,
2013-03-18 20:24:00,55.1,54.0,29.96,ESE,115,1.0,2.0,94,0.00,,,0.00,weatherlink.com 1.10,2013-03-19 00:24:00,
2013-03-18 20:39:00,55.0,53.0,29.95,SE,125,4.0,5.0,94,0.00,,,0.00,weatherlink.com 1.10,2013-03-19 00:39:00,
2013-03-18 20:54:00,55.0,53.0,29.95,ESE,110,2.0,5.0,94,0.00,,,0.00,weatherlink.com 1.10,2013-03-19 00:54:00,
2013-03-18 21:09:00,54.8,53.0,29.94,ESE,109,3.0,5.0,95,0.00,,,0.00,weatherlink.com 1.10,2013-03-19 01:09:00,
2013-03-18 21:24:00,54.7,53.0,29.95,ESE,110,1.0,2.0,95,0.00,,,0.00,weatherlink.com 1.10,2013-03-19 01:24:00,
2013-03-18 21:39:00,54.7,53.0,29.95,East,97,2.0,2.0,95,0.00,,,0.00,weatherlink.com 1.10,2013-03-19 01:39:00,
2013-03-18 21:54:00,54.7,53.0,29.95,ESE,121,3.0,5.0,95,0.00,,,0.00,weatherlink.com 1.10,2013-03-19 01:54:00,
2013-03-18 22:09:00,54.7,53.0,29.93,ENE,73,3.0,6.0,95,0.00,,,0.00,weatherlink.com 1.10,2013-03-19 02:09:00,
2013-03-18 22:24:00,54.8,53.0,29.93,East,83,3.0,5.0,95,0.00,,,0.00,weatherlink.com 1.10,2013-03-19 02:24:00,
2013-03-18 22:39:00,54.9,54.0,29.92,ENE,77,4.0,4.0,95,0.00,,,0.00,weatherlink.com 1.10,2013-03-19 02:39:00,
2013-03-18 22:54:00,54.8,53.0,29.93,ENE,70,2.0,4.0,95,0.00,,,0.00,weatherlink.com 1.10,2013-03-19 02:54:00,
2013-03-18 23:09:00,55.0,54.0,29.92,ENE,62,2.0,4.0,95,0.00,,,0.00,weatherlink.com 1.10,2013-03-19 03:09:00,
2013-03-18 23:24:00,54.9,54.0,29.92,NNE,20,3.0,5.0,95,0.00,,,0.00,weatherlink.com 1.10,2013-03-19 03:24:00,
2013-03-18 23:54:00,53.9,53.0,29.93,North,356,2.0,3.0,95,0.00,,,0.00,weatherlink.com 1.10,2013-03-19 03:54:00,